sensor_id;sensor_type;location;lat;lon;timestamp;P1;durP1;ratioP1;P2;durP2;ratioP2
28714;SDS011;15886;49.170;14.572;2023-08-20T00:01:27;11.52;;;8.90;;
28714;SDS011;15886;49.170;14.572;2023-08-20T00:03:56;11.20;;;8.98;;
28714;SDS011;15886;49.170;14.572;2023-08-20T00:06:25;11.55;;;9.07;;
28714;SDS011;15886;49.170;14.572;2023-08-20T00:08:55;14.55;;;9.80;;
28714;SDS011;15886;49.170;14.572;2023-08-20T00:11:23;11.73;;;9.30;;
28714;SDS011;15886;49.170;14.572;2023-08-20T00:13:52;12.80;;;9.82;;
28714;SDS011;15886;49.170;14.572;2023-08-20T00:16:20;13.80;;;10.07;;
28714;SDS011;15886;49.170;14.572;2023-08-20T00:18:51;15.70;;;9.98;;
28714;SDS011;15886;49.170;14.572;2023-08-20T00:21:19;15.20;;;10.65;;
28714;SDS011;15886;49.170;14.572;2023-08-20T00:23:47;13.55;;;11.07;;
28714;SDS011;15886;49.170;14.572;2023-08-20T00:26:17;15.52;;;9.85;;
28714;SDS011;15886;49.170;14.572;2023-08-20T00:28:45;13.15;;;10.63;;
28714;SDS011;15886;49.170;14.572;2023-08-20T00:31:15;13.85;;;8.77;;
28714;SDS011;15886;49.170;14.572;2023-08-20T00:33:43;14.13;;;10.68;;
28714;SDS011;15886;49.170;14.572;2023-08-20T00:36:16;12.80;;;9.73;;
28714;SDS011;15886;49.170;14.572;2023-08-20T00:38:45;14.23;;;9.75;;
28714;SDS011;15886;49.170;14.572;2023-08-20T00:41:15;14.70;;;9.30;;
28714;SDS011;15886;49.170;14.572;2023-08-20T00:43:43;12.50;;;10.10;;
28714;SDS011;15886;49.170;14.572;2023-08-20T00:46:13;12.85;;;10.65;;
28714;SDS011;15886;49.170;14.572;2023-08-20T00:48:41;13.65;;;10.82;;
28714;SDS011;15886;49.170;14.572;2023-08-20T00:51:09;15.60;;;10.68;;
28714;SDS011;15886;49.170;14.572;2023-08-20T00:53:40;20.05;;;10.45;;
28714;SDS011;15886;49.170;14.572;2023-08-20T00:56:09;14.40;;;9.70;;
28714;SDS011;15886;49.170;14.572;2023-08-20T00:58:40;11.98;;;8.75;;
28714;SDS011;15886;49.170;14.572;2023-08-20T01:01:08;10.30;;;9.02;;
28714;SDS011;15886;49.170;14.572;2023-08-20T01:03:39;12.18;;;9.35;;
28714;SDS011;15886;49.170;14.572;2023-08-20T01:08:45;12.65;;;8.95;;
28714;SDS011;15886;49.170;14.572;2023-08-20T01:11:21;11.60;;;9.07;;
28714;SDS011;15886;49.170;14.572;2023-08-20T01:13:54;13.70;;;9.60;;
28714;SDS011;15886;49.170;14.572;2023-08-20T01:16:22;12.55;;;9.40;;
28714;SDS011;15886;49.170;14.572;2023-08-20T01:18:52;11.45;;;8.85;;
28714;SDS011;15886;49.170;14.572;2023-08-20T01:24:23;20.83;;;8.75;;
28714;SDS011;15886;49.170;14.572;2023-08-20T01:29:43;14.07;;;8.50;;
28714;SDS011;15886;49.170;14.572;2023-08-20T01:32:13;11.02;;;8.93;;
28714;SDS011;15886;49.170;14.572;2023-08-20T01:34:42;12.45;;;8.27;;
28714;SDS011;15886;49.170;14.572;2023-08-20T01:37:11;11.05;;;8.20;;
28714;SDS011;15886;49.170;14.572;2023-08-20T01:39:39;10.52;;;8.13;;
28714;SDS011;15886;49.170;14.572;2023-08-20T01:42:08;10.98;;;9.50;;
28714;SDS011;15886;49.170;14.572;2023-08-20T01:44:36;11.18;;;9.05;;
28714;SDS011;15886;49.170;14.572;2023-08-20T01:47:05;9.32;;;8.25;;
28714;SDS011;15886;49.170;14.572;2023-08-20T01:49:33;13.10;;;8.38;;
28714;SDS011;15886;49.170;14.572;2023-08-20T01:52:01;10.18;;;9.05;;
28714;SDS011;15886;49.170;14.572;2023-08-20T01:54:31;13.15;;;9.05;;
28714;SDS011;15886;49.170;14.572;2023-08-20T01:56:59;10.68;;;7.30;;
28714;SDS011;15886;49.170;14.572;2023-08-20T01:59:29;10.93;;;9.40;;
28714;SDS011;15886;49.170;14.572;2023-08-20T02:02:01;13.10;;;8.50;;
28714;SDS011;15886;49.170;14.572;2023-08-20T02:04:32;16.75;;;10.40;;
28714;SDS011;15886;49.170;14.572;2023-08-20T02:07:00;10.73;;;8.35;;
28714;SDS011;15886;49.170;14.572;2023-08-20T02:09:28;11.52;;;8.45;;
28714;SDS011;15886;49.170;14.572;2023-08-20T02:11:56;10.15;;;8.80;;
28714;SDS011;15886;49.170;14.572;2023-08-20T02:14:25;11.05;;;8.82;;
28714;SDS011;15886;49.170;14.572;2023-08-20T02:16:55;14.07;;;9.18;;
28714;SDS011;15886;49.170;14.572;2023-08-20T02:19:24;13.13;;;9.30;;
28714;SDS011;15886;49.170;14.572;2023-08-20T02:21:52;13.27;;;8.50;;
28714;SDS011;15886;49.170;14.572;2023-08-20T02:24:21;13.13;;;10.27;;
28714;SDS011;15886;49.170;14.572;2023-08-20T02:26:49;15.70;;;10.88;;
28714;SDS011;15886;49.170;14.572;2023-08-20T02:29:17;16.08;;;9.30;;
28714;SDS011;15886;49.170;14.572;2023-08-20T02:31:45;14.57;;;10.23;;
28714;SDS011;15886;49.170;14.572;2023-08-20T02:34:15;12.73;;;9.38;;
28714;SDS011;15886;49.170;14.572;2023-08-20T02:36:47;11.52;;;8.95;;
28714;SDS011;15886;49.170;14.572;2023-08-20T02:39:18;11.43;;;8.35;;
28714;SDS011;15886;49.170;14.572;2023-08-20T02:41:47;11.73;;;8.50;;
28714;SDS011;15886;49.170;14.572;2023-08-20T02:44:15;14.85;;;9.00;;
28714;SDS011;15886;49.170;14.572;2023-08-20T02:46:43;12.85;;;10.05;;
28714;SDS011;15886;49.170;14.572;2023-08-20T02:49:12;12.82;;;9.13;;
28714;SDS011;15886;49.170;14.572;2023-08-20T02:51:42;15.95;;;9.30;;
28714;SDS011;15886;49.170;14.572;2023-08-20T02:54:12;16.20;;;10.40;;
28714;SDS011;15886;49.170;14.572;2023-08-20T02:56:45;14.25;;;9.85;;
28714;SDS011;15886;49.170;14.572;2023-08-20T02:59:13;13.25;;;9.68;;
28714;SDS011;15886;49.170;14.572;2023-08-20T03:01:41;11.60;;;8.75;;
28714;SDS011;15886;49.170;14.572;2023-08-20T03:04:10;13.55;;;9.90;;
28714;SDS011;15886;49.170;14.572;2023-08-20T03:06:39;13.05;;;9.43;;
28714;SDS011;15886;49.170;14.572;2023-08-20T03:09:07;13.95;;;10.75;;
28714;SDS011;15886;49.170;14.572;2023-08-20T03:11:35;13.88;;;9.65;;
28714;SDS011;15886;49.170;14.572;2023-08-20T03:14:04;13.07;;;10.38;;
28714;SDS011;15886;49.170;14.572;2023-08-20T03:16:34;17.20;;;9.02;;
28714;SDS011;15886;49.170;14.572;2023-08-20T03:19:03;13.00;;;10.43;;
28714;SDS011;15886;49.170;14.572;2023-08-20T03:21:31;13.02;;;10.23;;
28714;SDS011;15886;49.170;14.572;2023-08-20T03:24:00;18.42;;;10.13;;
28714;SDS011;15886;49.170;14.572;2023-08-20T03:26:28;15.00;;;11.20;;
28714;SDS011;15886;49.170;14.572;2023-08-20T03:28:59;13.75;;;9.45;;
28714;SDS011;15886;49.170;14.572;2023-08-20T03:31:29;14.95;;;10.02;;
28714;SDS011;15886;49.170;14.572;2023-08-20T03:33:57;15.27;;;10.07;;
28714;SDS011;15886;49.170;14.572;2023-08-20T03:36:27;13.88;;;10.00;;
28714;SDS011;15886;49.170;14.572;2023-08-20T03:38:56;15.27;;;11.63;;
28714;SDS011;15886;49.170;14.572;2023-08-20T03:41:24;14.23;;;10.70;;
28714;SDS011;15886;49.170;14.572;2023-08-20T03:43:52;14.48;;;10.88;;
28714;SDS011;15886;49.170;14.572;2023-08-20T03:46:20;15.05;;;10.93;;
28714;SDS011;15886;49.170;14.572;2023-08-20T03:48:51;17.90;;;10.57;;
28714;SDS011;15886;49.170;14.572;2023-08-20T03:51:19;13.40;;;9.93;;
28714;SDS011;15886;49.170;14.572;2023-08-20T03:53:49;16.02;;;10.13;;
28714;SDS011;15886;49.170;14.572;2023-08-20T03:56:17;17.27;;;10.25;;
28714;SDS011;15886;49.170;14.572;2023-08-20T03:58:46;15.73;;;10.55;;
28714;SDS011;15886;49.170;14.572;2023-08-20T04:01:16;16.13;;;10.45;;
28714;SDS011;15886;49.170;14.572;2023-08-20T04:03:49;13.95;;;11.18;;
28714;SDS011;15886;49.170;14.572;2023-08-20T04:06:18;14.80;;;9.75;;
28714;SDS011;15886;49.170;14.572;2023-08-20T04:08:46;14.02;;;10.98;;
28714;SDS011;15886;49.170;14.572;2023-08-20T04:11:14;13.63;;;10.88;;
28714;SDS011;15886;49.170;14.572;2023-08-20T04:13:42;16.63;;;11.13;;
28714;SDS011;15886;49.170;14.572;2023-08-20T04:16:13;20.55;;;10.75;;
28714;SDS011;15886;49.170;14.572;2023-08-20T04:18:42;15.23;;;11.02;;
28714;SDS011;15886;49.170;14.572;2023-08-20T04:21:11;13.35;;;11.00;;
28714;SDS011;15886;49.170;14.572;2023-08-20T04:23:45;13.80;;;10.63;;
28714;SDS011;15886;49.170;14.572;2023-08-20T04:26:13;16.55;;;11.40;;
28714;SDS011;15886;49.170;14.572;2023-08-20T04:28:42;15.45;;;11.82;;
28714;SDS011;15886;49.170;14.572;2023-08-20T04:31:10;15.65;;;11.30;;
28714;SDS011;15886;49.170;14.572;2023-08-20T04:33:59;18.67;;;11.98;;
28714;SDS011;15886;49.170;14.572;2023-08-20T04:36:38;16.30;;;10.90;;
28714;SDS011;15886;49.170;14.572;2023-08-20T04:39:06;16.05;;;10.38;;
28714;SDS011;15886;49.170;14.572;2023-08-20T04:41:37;13.23;;;10.57;;
28714;SDS011;15886;49.170;14.572;2023-08-20T04:44:10;16.23;;;10.75;;
28714;SDS011;15886;49.170;14.572;2023-08-20T04:46:38;13.82;;;9.73;;
28714;SDS011;15886;49.170;14.572;2023-08-20T04:49:07;16.40;;;10.38;;
28714;SDS011;15886;49.170;14.572;2023-08-20T04:51:37;20.98;;;10.52;;
28714;SDS011;15886;49.170;14.572;2023-08-20T04:54:06;12.70;;;10.48;;
28714;SDS011;15886;49.170;14.572;2023-08-20T04:56:34;17.33;;;11.32;;
28714;SDS011;15886;49.170;14.572;2023-08-20T04:59:03;13.18;;;10.88;;
28714;SDS011;15886;49.170;14.572;2023-08-20T05:01:54;17.70;;;11.40;;
28714;SDS011;15886;49.170;14.572;2023-08-20T05:04:36;17.73;;;11.32;;
28714;SDS011;15886;49.170;14.572;2023-08-20T05:07:07;14.95;;;10.73;;
28714;SDS011;15886;49.170;14.572;2023-08-20T05:09:35;19.27;;;12.07;;
28714;SDS011;15886;49.170;14.572;2023-08-20T05:12:04;16.23;;;11.35;;
28714;SDS011;15886;49.170;14.572;2023-08-20T05:14:35;17.73;;;11.25;;
28714;SDS011;15886;49.170;14.572;2023-08-20T05:17:03;15.30;;;12.40;;
28714;SDS011;15886;49.170;14.572;2023-08-20T05:19:32;16.80;;;13.20;;
28714;SDS011;15886;49.170;14.572;2023-08-20T05:22:00;17.58;;;12.30;;
28714;SDS011;15886;49.170;14.572;2023-08-20T05:24:33;23.20;;;12.60;;
28714;SDS011;15886;49.170;14.572;2023-08-20T05:27:08;19.58;;;13.43;;
28714;SDS011;15886;49.170;14.572;2023-08-20T05:29:38;16.92;;;12.63;;
28714;SDS011;15886;49.170;14.572;2023-08-20T05:32:07;20.85;;;13.77;;
28714;SDS011;15886;49.170;14.572;2023-08-20T05:34:36;19.55;;;13.88;;
28714;SDS011;15886;49.170;14.572;2023-08-20T05:37:07;18.58;;;13.75;;
28714;SDS011;15886;49.170;14.572;2023-08-20T05:39:42;19.90;;;13.45;;
28714;SDS011;15886;49.170;14.572;2023-08-20T05:42:12;22.42;;;14.30;;
28714;SDS011;15886;49.170;14.572;2023-08-20T05:44:46;19.88;;;13.98;;
28714;SDS011;15886;49.170;14.572;2023-08-20T05:47:20;22.23;;;14.65;;
28714;SDS011;15886;49.170;14.572;2023-08-20T05:49:48;19.00;;;13.88;;
28714;SDS011;15886;49.170;14.572;2023-08-20T05:52:17;18.58;;;12.50;;
28714;SDS011;15886;49.170;14.572;2023-08-20T05:54:45;16.17;;;12.20;;
28714;SDS011;15886;49.170;14.572;2023-08-20T05:57:15;15.68;;;12.07;;
28714;SDS011;15886;49.170;14.572;2023-08-20T05:59:43;26.92;;;13.52;;
28714;SDS011;15886;49.170;14.572;2023-08-20T06:02:15;17.48;;;12.93;;
28714;SDS011;15886;49.170;14.572;2023-08-20T06:04:45;18.65;;;14.00;;
28714;SDS011;15886;49.170;14.572;2023-08-20T06:07:13;18.05;;;14.57;;
28714;SDS011;15886;49.170;14.572;2023-08-20T06:09:41;19.98;;;13.82;;
28714;SDS011;15886;49.170;14.572;2023-08-20T06:12:09;16.48;;;12.70;;
28714;SDS011;15886;49.170;14.572;2023-08-20T06:14:39;14.95;;;11.82;;
28714;SDS011;15886;49.170;14.572;2023-08-20T06:17:11;19.10;;;13.73;;
28714;SDS011;15886;49.170;14.572;2023-08-20T06:19:39;16.80;;;12.07;;
28714;SDS011;15886;49.170;14.572;2023-08-20T06:22:07;18.42;;;13.60;;
28714;SDS011;15886;49.170;14.572;2023-08-20T06:24:35;29.00;;;14.23;;
28714;SDS011;15886;49.170;14.572;2023-08-20T06:27:04;21.20;;;17.20;;
28714;SDS011;15886;49.170;14.572;2023-08-20T06:29:32;22.75;;;13.85;;
28714;SDS011;15886;49.170;14.572;2023-08-20T06:32:01;20.85;;;15.30;;
28714;SDS011;15886;49.170;14.572;2023-08-20T06:34:31;18.90;;;15.25;;
28714;SDS011;15886;49.170;14.572;2023-08-20T06:36:59;18.75;;;12.70;;
28714;SDS011;15886;49.170;14.572;2023-08-20T06:39:30;19.73;;;14.07;;
28714;SDS011;15886;49.170;14.572;2023-08-20T06:41:58;16.92;;;13.43;;
28714;SDS011;15886;49.170;14.572;2023-08-20T06:44:26;20.40;;;14.43;;
28714;SDS011;15886;49.170;14.572;2023-08-20T06:46:56;16.05;;;13.15;;
28714;SDS011;15886;49.170;14.572;2023-08-20T06:49:26;13.15;;;11.32;;
28714;SDS011;15886;49.170;14.572;2023-08-20T06:51:57;18.25;;;12.75;;
28714;SDS011;15886;49.170;14.572;2023-08-20T06:54:25;14.00;;;11.30;;
28714;SDS011;15886;49.170;14.572;2023-08-20T06:56:55;18.50;;;12.75;;
28714;SDS011;15886;49.170;14.572;2023-08-20T06:59:25;18.08;;;12.45;;
28714;SDS011;15886;49.170;14.572;2023-08-20T07:01:54;15.48;;;12.30;;
28714;SDS011;15886;49.170;14.572;2023-08-20T07:04:23;15.48;;;12.23;;
28714;SDS011;15886;49.170;14.572;2023-08-20T07:06:53;21.10;;;12.07;;
28714;SDS011;15886;49.170;14.572;2023-08-20T07:09:41;13.32;;;11.48;;
28714;SDS011;15886;49.170;14.572;2023-08-20T07:12:19;18.38;;;13.52;;
28714;SDS011;15886;49.170;14.572;2023-08-20T07:14:57;13.70;;;11.45;;
28714;SDS011;15886;49.170;14.572;2023-08-20T07:17:25;16.48;;;12.88;;
28714;SDS011;15886;49.170;14.572;2023-08-20T07:19:54;16.00;;;12.50;;
28714;SDS011;15886;49.170;14.572;2023-08-20T07:22:22;14.00;;;11.57;;
28714;SDS011;15886;49.170;14.572;2023-08-20T07:24:50;16.88;;;12.55;;
28714;SDS011;15886;49.170;14.572;2023-08-20T07:27:18;16.63;;;13.48;;
28714;SDS011;15886;49.170;14.572;2023-08-20T07:29:47;18.23;;;12.07;;
28714;SDS011;15886;49.170;14.572;2023-08-20T07:32:15;15.35;;;12.63;;
28714;SDS011;15886;49.170;14.572;2023-08-20T07:34:43;17.77;;;11.68;;
28714;SDS011;15886;49.170;14.572;2023-08-20T07:37:12;12.52;;;11.13;;
28714;SDS011;15886;49.170;14.572;2023-08-20T07:39:40;17.00;;;12.85;;
28714;SDS011;15886;49.170;14.572;2023-08-20T07:42:08;11.38;;;10.02;;
28714;SDS011;15886;49.170;14.572;2023-08-20T07:44:38;14.80;;;11.52;;
28714;SDS011;15886;49.170;14.572;2023-08-20T07:47:06;15.52;;;11.57;;
28714;SDS011;15886;49.170;14.572;2023-08-20T07:49:34;14.55;;;11.23;;
28714;SDS011;15886;49.170;14.572;2023-08-20T07:52:03;13.60;;;10.77;;
28714;SDS011;15886;49.170;14.572;2023-08-20T07:54:31;14.48;;;11.13;;
28714;SDS011;15886;49.170;14.572;2023-08-20T07:56:59;13.57;;;10.57;;
28714;SDS011;15886;49.170;14.572;2023-08-20T07:59:28;12.68;;;10.30;;
28714;SDS011;15886;49.170;14.572;2023-08-20T08:01:56;12.98;;;10.73;;
28714;SDS011;15886;49.170;14.572;2023-08-20T08:04:24;13.05;;;10.90;;
28714;SDS011;15886;49.170;14.572;2023-08-20T08:06:54;22.25;;;11.27;;
28714;SDS011;15886;49.170;14.572;2023-08-20T08:09:27;14.35;;;11.05;;
28714;SDS011;15886;49.170;14.572;2023-08-20T08:11:55;16.48;;;11.20;;
28714;SDS011;15886;49.170;14.572;2023-08-20T08:14:26;18.27;;;10.48;;
28714;SDS011;15886;49.170;14.572;2023-08-20T08:16:54;12.02;;;10.18;;
28714;SDS011;15886;49.170;14.572;2023-08-20T08:19:25;13.20;;;10.05;;
28714;SDS011;15886;49.170;14.572;2023-08-20T08:22:01;14.48;;;9.52;;
28714;SDS011;15886;49.170;14.572;2023-08-20T08:24:30;9.55;;;8.32;;
28714;SDS011;15886;49.170;14.572;2023-08-20T08:26:58;9.93;;;8.50;;
28714;SDS011;15886;49.170;14.572;2023-08-20T08:29:26;13.60;;;11.38;;
28714;SDS011;15886;49.170;14.572;2023-08-20T08:31:55;9.60;;;8.02;;
28714;SDS011;15886;49.170;14.572;2023-08-20T08:34:23;9.55;;;7.53;;
28714;SDS011;15886;49.170;14.572;2023-08-20T08:36:51;9.05;;;7.57;;
28714;SDS011;15886;49.170;14.572;2023-08-20T08:39:20;14.95;;;10.15;;
28714;SDS011;15886;49.170;14.572;2023-08-20T08:41:49;15.07;;;12.00;;
28714;SDS011;15886;49.170;14.572;2023-08-20T08:44:18;10.05;;;8.18;;
28714;SDS011;15886;49.170;14.572;2023-08-20T08:46:48;11.90;;;10.20;;
28714;SDS011;15886;49.170;14.572;2023-08-20T08:49:18;19.42;;;12.65;;
28714;SDS011;15886;49.170;14.572;2023-08-20T08:51:46;10.50;;;9.18;;
28714;SDS011;15886;49.170;14.572;2023-08-20T08:54:14;11.52;;;8.38;;
28714;SDS011;15886;49.170;14.572;2023-08-20T08:56:43;10.27;;;7.70;;
28714;SDS011;15886;49.170;14.572;2023-08-20T08:59:11;8.65;;;7.43;;
28714;SDS011;15886;49.170;14.572;2023-08-20T09:01:40;8.90;;;7.55;;
28714;SDS011;15886;49.170;14.572;2023-08-20T09:04:08;6.80;;;6.10;;
28714;SDS011;15886;49.170;14.572;2023-08-20T09:09:16;13.25;;;10.02;;
28714;SDS011;15886;49.170;14.572;2023-08-20T09:11:46;12.77;;;10.35;;
28714;SDS011;15886;49.170;14.572;2023-08-20T09:14:21;9.15;;;8.15;;
28714;SDS011;15886;49.170;14.572;2023-08-20T09:16:54;8.20;;;7.15;;
28714;SDS011;15886;49.170;14.572;2023-08-20T09:19:23;8.68;;;7.10;;
28714;SDS011;15886;49.170;14.572;2023-08-20T09:21:51;11.68;;;10.25;;
28714;SDS011;15886;49.170;14.572;2023-08-20T09:24:32;20.45;;;12.65;;
28714;SDS011;15886;49.170;14.572;2023-08-20T09:27:03;19.70;;;11.40;;
28714;SDS011;15886;49.170;14.572;2023-08-20T09:29:32;10.80;;;8.68;;
28714;SDS011;15886;49.170;14.572;2023-08-20T09:32:01;7.30;;;6.60;;
28714;SDS011;15886;49.170;14.572;2023-08-20T09:34:36;15.95;;;10.00;;
28714;SDS011;15886;49.170;14.572;2023-08-20T09:37:13;7.60;;;6.60;;
28714;SDS011;15886;49.170;14.572;2023-08-20T09:39:41;8.40;;;6.77;;
28714;SDS011;15886;49.170;14.572;2023-08-20T09:42:10;6.53;;;5.88;;
28714;SDS011;15886;49.170;14.572;2023-08-20T09:44:39;6.97;;;6.05;;
28714;SDS011;15886;49.170;14.572;2023-08-20T09:49:36;7.03;;;6.18;;
28714;SDS011;15886;49.170;14.572;2023-08-20T09:52:06;14.88;;;9.82;;
28714;SDS011;15886;49.170;14.572;2023-08-20T09:57:05;6.53;;;5.85;;
28714;SDS011;15886;49.170;14.572;2023-08-20T09:59:35;10.07;;;8.70;;
28714;SDS011;15886;49.170;14.572;2023-08-20T10:02:04;7.65;;;6.63;;
28714;SDS011;15886;49.170;14.572;2023-08-20T10:04:32;7.18;;;6.45;;
28714;SDS011;15886;49.170;14.572;2023-08-20T10:07:00;6.82;;;5.80;;
28714;SDS011;15886;49.170;14.572;2023-08-20T10:09:30;6.18;;;5.57;;
28714;SDS011;15886;49.170;14.572;2023-08-20T10:11:59;6.68;;;5.63;;
28714;SDS011;15886;49.170;14.572;2023-08-20T10:14:34;5.55;;;5.00;;
28714;SDS011;15886;49.170;14.572;2023-08-20T10:17:06;7.32;;;6.57;;
28714;SDS011;15886;49.170;14.572;2023-08-20T10:19:36;6.72;;;6.03;;
28714;SDS011;15886;49.170;14.572;2023-08-20T10:22:05;8.35;;;7.28;;
28714;SDS011;15886;49.170;14.572;2023-08-20T10:25:09;5.97;;;5.38;;
28714;SDS011;15886;49.170;14.572;2023-08-20T10:27:33;6.97;;;5.93;;
28714;SDS011;15886;49.170;14.572;2023-08-20T10:30:03;7.18;;;6.20;;
28714;SDS011;15886;49.170;14.572;2023-08-20T10:32:45;8.50;;;5.85;;
28714;SDS011;15886;49.170;14.572;2023-08-20T10:35:18;7.07;;;5.75;;
28714;SDS011;15886;49.170;14.572;2023-08-20T10:40:49;6.70;;;5.60;;
28714;SDS011;15886;49.170;14.572;2023-08-20T10:46:24;7.10;;;4.70;;
28714;SDS011;15886;49.170;14.572;2023-08-20T10:48:54;6.93;;;5.28;;
28714;SDS011;15886;49.170;14.572;2023-08-20T10:51:26;5.80;;;5.20;;
28714;SDS011;15886;49.170;14.572;2023-08-20T10:59:05;6.30;;;5.38;;
28714;SDS011;15886;49.170;14.572;2023-08-20T11:01:35;5.70;;;4.97;;
28714;SDS011;15886;49.170;14.572;2023-08-20T11:04:03;5.93;;;5.32;;
28714;SDS011;15886;49.170;14.572;2023-08-20T11:06:34;5.82;;;5.00;;
28714;SDS011;15886;49.170;14.572;2023-08-20T11:09:02;13.90;;;5.28;;
28714;SDS011;15886;49.170;14.572;2023-08-20T11:11:31;5.60;;;5.10;;
28714;SDS011;15886;49.170;14.572;2023-08-20T11:14:06;5.10;;;4.60;;
28714;SDS011;15886;49.170;14.572;2023-08-20T11:16:34;6.72;;;4.72;;
28714;SDS011;15886;49.170;14.572;2023-08-20T11:19:04;5.72;;;4.88;;
28714;SDS011;15886;49.170;14.572;2023-08-20T11:21:37;7.55;;;5.18;;
28714;SDS011;15886;49.170;14.572;2023-08-20T11:24:06;6.93;;;5.38;;
28714;SDS011;15886;49.170;14.572;2023-08-20T11:26:34;6.07;;;4.90;;
28714;SDS011;15886;49.170;14.572;2023-08-20T11:29:06;6.82;;;4.75;;
28714;SDS011;15886;49.170;14.572;2023-08-20T11:31:38;11.18;;;5.20;;
28714;SDS011;15886;49.170;14.572;2023-08-20T11:34:06;5.10;;;4.60;;
28714;SDS011;15886;49.170;14.572;2023-08-20T11:36:35;4.82;;;4.30;;
28714;SDS011;15886;49.170;14.572;2023-08-20T11:39:03;5.07;;;4.57;;
28714;SDS011;15886;49.170;14.572;2023-08-20T11:41:31;4.90;;;4.40;;
28714;SDS011;15886;49.170;14.572;2023-08-20T11:44:03;6.38;;;4.35;;
28714;SDS011;15886;49.170;14.572;2023-08-20T11:46:32;5.45;;;4.72;;
28714;SDS011;15886;49.170;14.572;2023-08-20T11:49:04;4.90;;;3.95;;
28714;SDS011;15886;49.170;14.572;2023-08-20T11:51:37;5.32;;;4.78;;
28714;SDS011;15886;49.170;14.572;2023-08-20T11:54:05;5.15;;;4.05;;
28714;SDS011;15886;49.170;14.572;2023-08-20T11:56:35;5.28;;;4.40;;
28714;SDS011;15886;49.170;14.572;2023-08-20T11:59:06;4.60;;;4.05;;
28714;SDS011;15886;49.170;14.572;2023-08-20T12:01:39;4.85;;;4.35;;
28714;SDS011;15886;49.170;14.572;2023-08-20T12:04:08;4.68;;;4.22;;
28714;SDS011;15886;49.170;14.572;2023-08-20T12:06:37;5.00;;;4.40;;
28714;SDS011;15886;49.170;14.572;2023-08-20T12:09:18;6.07;;;4.63;;
28714;SDS011;15886;49.170;14.572;2023-08-20T12:11:51;5.95;;;4.55;;
28714;SDS011;15886;49.170;14.572;2023-08-20T12:14:22;6.10;;;5.03;;
28714;SDS011;15886;49.170;14.572;2023-08-20T12:16:55;5.95;;;4.85;;
28714;SDS011;15886;49.170;14.572;2023-08-20T12:19:24;5.32;;;4.82;;
28714;SDS011;15886;49.170;14.572;2023-08-20T12:21:52;8.00;;;5.40;;
28714;SDS011;15886;49.170;14.572;2023-08-20T12:24:20;8.25;;;5.43;;
28714;SDS011;15886;49.170;14.572;2023-08-20T12:26:49;4.60;;;4.07;;
28714;SDS011;15886;49.170;14.572;2023-08-20T12:29:17;7.53;;;5.03;;
28714;SDS011;15886;49.170;14.572;2023-08-20T12:31:48;4.55;;;4.15;;
28714;SDS011;15886;49.170;14.572;2023-08-20T12:34:20;6.50;;;4.47;;
28714;SDS011;15886;49.170;14.572;2023-08-20T12:36:48;4.93;;;4.15;;
28714;SDS011;15886;49.170;14.572;2023-08-20T12:39:17;5.18;;;4.68;;
28714;SDS011;15886;49.170;14.572;2023-08-20T12:41:46;4.50;;;4.10;;
28714;SDS011;15886;49.170;14.572;2023-08-20T12:44:14;4.80;;;4.30;;
28714;SDS011;15886;49.170;14.572;2023-08-20T12:46:42;8.10;;;4.40;;
28714;SDS011;15886;49.170;14.572;2023-08-20T12:49:11;5.07;;;4.38;;
28714;SDS011;15886;49.170;14.572;2023-08-20T12:51:40;7.65;;;5.25;;
28714;SDS011;15886;49.170;14.572;2023-08-20T12:54:08;6.32;;;4.43;;
28714;SDS011;15886;49.170;14.572;2023-08-20T12:56:36;6.03;;;4.32;;
28714;SDS011;15886;49.170;14.572;2023-08-20T12:59:04;5.05;;;4.55;;
28714;SDS011;15886;49.170;14.572;2023-08-20T13:01:33;6.72;;;4.90;;
28714;SDS011;15886;49.170;14.572;2023-08-20T13:04:01;7.53;;;5.03;;
28714;SDS011;15886;49.170;14.572;2023-08-20T13:06:31;4.40;;;3.88;;
28714;SDS011;15886;49.170;14.572;2023-08-20T13:09:00;5.85;;;4.47;;
28714;SDS011;15886;49.170;14.572;2023-08-20T13:11:30;4.82;;;4.30;;
28714;SDS011;15886;49.170;14.572;2023-08-20T13:13:59;5.32;;;4.35;;
28714;SDS011;15886;49.170;14.572;2023-08-20T13:16:27;6.13;;;4.45;;
28714;SDS011;15886;49.170;14.572;2023-08-20T13:18:56;5.10;;;4.05;;
28714;SDS011;15886;49.170;14.572;2023-08-20T13:21:24;6.80;;;5.35;;
28714;SDS011;15886;49.170;14.572;2023-08-20T13:23:53;8.68;;;5.70;;
28714;SDS011;15886;49.170;14.572;2023-08-20T13:26:21;4.40;;;4.00;;
28714;SDS011;15886;49.170;14.572;2023-08-20T13:28:49;4.82;;;4.32;;
28714;SDS011;15886;49.170;14.572;2023-08-20T13:31:18;8.50;;;4.78;;
28714;SDS011;15886;49.170;14.572;2023-08-20T13:33:46;4.50;;;3.80;;
28714;SDS011;15886;49.170;14.572;2023-08-20T13:36:16;8.30;;;4.80;;
28714;SDS011;15886;49.170;14.572;2023-08-20T13:38:45;4.65;;;4.22;;
28714;SDS011;15886;49.170;14.572;2023-08-20T13:41:13;5.55;;;4.35;;
28714;SDS011;15886;49.170;14.572;2023-08-20T13:43:43;4.80;;;3.90;;
28714;SDS011;15886;49.170;14.572;2023-08-20T13:46:11;4.22;;;3.78;;
28714;SDS011;15886;49.170;14.572;2023-08-20T13:48:39;6.43;;;4.10;;
28714;SDS011;15886;49.170;14.572;2023-08-20T13:51:08;4.97;;;4.07;;
28714;SDS011;15886;49.170;14.572;2023-08-20T13:53:36;4.75;;;4.10;;
28714;SDS011;15886;49.170;14.572;2023-08-20T13:56:04;4.55;;;4.10;;
28714;SDS011;15886;49.170;14.572;2023-08-20T13:58:33;5.68;;;4.60;;
28714;SDS011;15886;49.170;14.572;2023-08-20T14:01:01;5.47;;;4.10;;
28714;SDS011;15886;49.170;14.572;2023-08-20T14:03:29;4.72;;;4.22;;
28714;SDS011;15886;49.170;14.572;2023-08-20T14:05:58;4.88;;;4.35;;
28714;SDS011;15886;49.170;14.572;2023-08-20T14:08:26;5.82;;;4.18;;
28714;SDS011;15886;49.170;14.572;2023-08-20T14:10:54;7.93;;;4.50;;
28714;SDS011;15886;49.170;14.572;2023-08-20T14:13:22;9.38;;;5.00;;
28714;SDS011;15886;49.170;14.572;2023-08-20T14:15:51;5.10;;;3.88;;
28714;SDS011;15886;49.170;14.572;2023-08-20T14:18:20;5.00;;;4.50;;
28714;SDS011;15886;49.170;14.572;2023-08-20T14:20:48;5.45;;;3.67;;
28714;SDS011;15886;49.170;14.572;2023-08-20T14:23:16;5.63;;;4.03;;
28714;SDS011;15886;49.170;14.572;2023-08-20T14:25:44;4.47;;;4.07;;
28714;SDS011;15886;49.170;14.572;2023-08-20T14:28:13;4.40;;;3.90;;
28714;SDS011;15886;49.170;14.572;2023-08-20T14:30:41;5.97;;;4.45;;
28714;SDS011;15886;49.170;14.572;2023-08-20T14:33:09;4.97;;;3.63;;
28714;SDS011;15886;49.170;14.572;2023-08-20T14:35:38;5.03;;;3.88;;
28714;SDS011;15886;49.170;14.572;2023-08-20T14:38:06;5.45;;;3.35;;
28714;SDS011;15886;49.170;14.572;2023-08-20T14:40:38;6.93;;;4.03;;
28714;SDS011;15886;49.170;14.572;2023-08-20T14:43:07;6.05;;;4.10;;
28714;SDS011;15886;49.170;14.572;2023-08-20T14:45:35;6.97;;;4.10;;
28714;SDS011;15886;49.170;14.572;2023-08-20T14:48:04;5.50;;;4.35;;
28714;SDS011;15886;49.170;14.572;2023-08-20T14:50:32;5.50;;;3.88;;
28714;SDS011;15886;49.170;14.572;2023-08-20T14:53:00;6.15;;;3.97;;
28714;SDS011;15886;49.170;14.572;2023-08-20T14:55:31;5.95;;;3.80;;
28714;SDS011;15886;49.170;14.572;2023-08-20T14:58:10;4.32;;;3.92;;
28714;SDS011;15886;49.170;14.572;2023-08-20T15:00:49;5.78;;;4.30;;
28714;SDS011;15886;49.170;14.572;2023-08-20T15:03:21;4.68;;;3.63;;